createdAt,value
2023-05-02T00:00:28.212Z,1.50
2023-05-02T00:01:28.180Z,1.70
2023-05-02T00:02:28.309Z,2.40
2023-05-02T00:03:28.261Z,0.80
2023-05-02T00:04:28.194Z,6.40
2023-05-02T00:05:28.157Z,1.10
2023-05-02T00:06:28.303Z,1.60
2023-05-02T00:07:28.140Z,2.70
2023-05-02T00:08:28.139Z,4.30
2023-05-02T00:09:28.117Z,0.70
2023-05-02T00:10:28.148Z,4.50
2023-05-02T00:11:28.107Z,1.80
2023-05-02T00:12:28.105Z,3.50
2023-05-02T00:13:28.079Z,0.90
2023-05-02T00:14:28.123Z,1.20
2023-05-02T00:15:28.192Z,1.60
2023-05-02T00:16:28.108Z,5.00
2023-05-02T00:17:28.111Z,3.80
2023-05-02T00:18:28.059Z,0.80
2023-05-02T00:19:28.071Z,1.30
2023-05-02T00:20:28.062Z,1.40
2023-05-02T00:21:28.066Z,1.70
2023-05-02T00:22:28.031Z,1.60
2023-05-02T00:23:28.032Z,1.40
2023-05-02T00:24:28.075Z,2.10
2023-05-02T00:25:28.020Z,0.80
2023-05-02T00:26:28.002Z,2.10
2023-05-02T00:27:28.021Z,1.10
2023-05-02T00:28:27.998Z,1.80
2023-05-02T00:29:27.991Z,1.30
2023-05-02T00:30:27.999Z,1.50
2023-05-02T00:31:28.007Z,2.90
2023-05-02T00:32:27.982Z,0.80
2023-05-02T00:33:27.948Z,1.30
2023-05-02T00:34:27.989Z,1.60
2023-05-02T00:35:27.962Z,1.90
2023-05-02T00:36:27.929Z,0.70
2023-05-02T00:37:27.953Z,1.90
2023-05-02T00:38:27.952Z,2.20
2023-05-02T00:39:27.910Z,1.20
2023-05-02T00:40:27.947Z,1.00
2023-05-02T00:41:27.894Z,1.70
2023-05-02T00:42:27.944Z,3.50
2023-05-02T00:43:27.890Z,0.70
2023-05-02T00:44:27.970Z,1.60
2023-05-02T00:45:27.883Z,4.30
2023-05-02T00:46:27.966Z,1.30
2023-05-02T00:47:27.877Z,1.50
2023-05-02T00:48:27.974Z,1.10
2023-05-02T00:49:27.837Z,1.00
2023-05-02T00:50:27.872Z,0.80
2023-05-02T00:51:27.824Z,1.80
2023-05-02T00:52:27.829Z,8.20
2023-05-02T00:53:27.814Z,1.20
2023-05-02T00:54:27.838Z,1.50
2023-05-02T00:55:27.843Z,1.00
2023-05-02T00:56:27.790Z,1.20
2023-05-02T00:57:27.786Z,1.60
2023-05-02T00:58:27.782Z,3.70
2023-05-02T00:59:27.775Z,1.20
2023-05-02T01:00:28.382Z,0.80
2023-05-02T01:01:27.840Z,4.70
2023-05-02T01:02:27.869Z,1.40
2023-05-02T01:03:27.796Z,1.20
2023-05-02T01:04:27.815Z,4.00
2023-05-02T01:05:27.751Z,0.90
2023-05-02T01:06:27.774Z,0.80
2023-05-02T01:07:27.769Z,1.20
2023-05-02T01:08:27.760Z,3.70
2023-05-02T01:09:27.712Z,0.90
2023-05-02T01:10:27.723Z,1.90
2023-05-02T01:11:27.739Z,1.90
2023-05-02T01:12:27.686Z,1.60
2023-05-02T01:13:27.698Z,1.50
2023-05-02T01:14:27.678Z,1.70
2023-05-02T01:15:27.709Z,1.40
2023-05-02T01:16:27.737Z,1.10
2023-05-02T01:17:27.685Z,1.20
2023-05-02T01:18:27.680Z,1.10
2023-05-02T01:19:27.685Z,1.30
2023-05-02T01:20:27.659Z,1.40
2023-05-02T01:21:27.629Z,0.90
2023-05-02T01:22:27.664Z,4.80
2023-05-02T01:23:27.618Z,1.60
2023-05-02T01:24:27.620Z,1.60
2023-05-02T01:25:27.683Z,1.00
2023-05-02T01:26:27.586Z,0.90
2023-05-02T01:27:27.606Z,2.40
2023-05-02T01:28:27.571Z,1.10
2023-05-02T01:29:27.580Z,1.10
2023-05-02T01:30:27.600Z,1.80
2023-05-02T01:31:27.638Z,1.50
2023-05-02T01:32:27.568Z,1.50
2023-05-02T01:33:27.551Z,1.90
2023-05-02T01:34:27.540Z,2.30
2023-05-02T01:35:27.584Z,5.30
2023-05-02T01:36:27.538Z,1.30
2023-05-02T01:37:27.522Z,1.60
2023-05-02T01:38:27.518Z,2.20
2023-05-02T01:39:27.496Z,2.30
2023-05-02T01:40:28.511Z,1.40
2023-05-02T01:41:27.490Z,2.10
2023-05-02T01:42:27.496Z,2.00
2023-05-02T01:43:27.476Z,1.80
2023-05-02T01:44:27.472Z,3.90
2023-05-02T01:45:27.502Z,5.50
2023-05-02T01:46:27.480Z,4.20
2023-05-02T01:47:27.508Z,2.00
2023-05-02T01:48:27.453Z,5.00
2023-05-02T01:49:27.460Z,2.30
2023-05-02T01:50:27.491Z,5.70
2023-05-02T01:51:27.430Z,1.40
2023-05-02T01:52:27.430Z,2.00
2023-05-02T01:53:27.417Z,2.70
2023-05-02T01:54:27.394Z,2.50
2023-05-02T01:55:27.433Z,4.90
2023-05-02T01:56:27.387Z,2.70
2023-05-02T01:57:27.382Z,5.40
2023-05-02T01:58:27.416Z,2.60
2023-05-02T01:59:27.465Z,6.50
2023-05-02T02:00:27.390Z,4.80
2023-05-02T02:01:27.426Z,2.80
2023-05-02T02:02:27.350Z,2.50
2023-05-02T02:03:27.365Z,6.00
2023-05-02T02:04:27.392Z,2.70
2023-05-02T02:05:27.351Z,6.10
2023-05-02T02:06:27.343Z,4.20
2023-05-02T02:07:27.327Z,3.70
2023-05-02T02:08:27.316Z,3.10
2023-05-02T02:09:27.294Z,2.70
2023-05-02T02:10:27.314Z,5.90
2023-05-02T02:11:27.283Z,2.60
2023-05-02T02:12:27.278Z,6.20
2023-05-02T02:13:27.271Z,5.30
2023-05-02T02:14:27.263Z,2.20
2023-05-02T02:15:27.269Z,2.80
2023-05-02T02:16:27.313Z,2.70
2023-05-02T02:17:27.349Z,3.10
2023-05-02T02:18:27.236Z,7.20
2023-05-02T02:19:27.225Z,2.90
2023-05-02T02:20:27.234Z,4.90
2023-05-02T02:21:27.220Z,2.40
2023-05-02T02:22:27.198Z,2.70
2023-05-02T02:23:27.196Z,2.40
2023-05-02T02:24:27.204Z,5.80
2023-05-02T02:25:27.211Z,2.60
2023-05-02T02:26:27.186Z,2.60
2023-05-02T02:27:27.171Z,2.90
2023-05-02T02:28:27.175Z,3.20
2023-05-02T02:29:27.157Z,2.60
2023-05-02T02:30:27.173Z,2.70
2023-05-02T02:31:27.202Z,3.20
2023-05-02T02:32:27.136Z,3.00
2023-05-02T02:33:27.128Z,3.60
2023-05-02T02:34:27.127Z,4.70
2023-05-02T02:35:27.121Z,3.60
2023-05-02T02:36:27.152Z,3.00
2023-05-02T02:37:27.100Z,3.70
2023-05-02T02:38:27.101Z,3.20
2023-05-02T02:39:27.112Z,2.40
2023-05-02T02:40:27.111Z,2.40
2023-05-02T02:41:27.072Z,2.60
2023-05-02T02:42:27.073Z,2.50
2023-05-02T02:43:27.074Z,5.00
2023-05-02T02:44:27.061Z,2.70
2023-05-02T02:45:27.109Z,3.30
2023-05-02T02:46:27.169Z,6.40
2023-05-02T02:47:27.033Z,2.60
2023-05-02T02:48:27.011Z,5.00
2023-05-02T02:49:27.023Z,8.00
2023-05-02T02:50:27.038Z,3.00
2023-05-02T02:51:27.003Z,2.60
2023-05-02T02:52:27.062Z,2.50
2023-05-02T02:53:26.992Z,2.50
2023-05-02T02:54:27.634Z,3.80
2023-05-02T02:55:27.010Z,7.00
2023-05-02T02:56:26.973Z,3.30
2023-05-02T02:57:26.960Z,3.50
2023-05-02T02:58:26.962Z,3.20
2023-05-02T02:59:26.961Z,4.10
2023-05-02T03:00:26.950Z,1.90
2023-05-02T03:01:26.995Z,3.10
2023-05-02T03:02:26.995Z,2.00
2023-05-02T03:03:26.988Z,9.40
2023-05-02T03:04:26.903Z,2.80
2023-05-02T03:05:26.922Z,7.00
2023-05-02T03:06:26.974Z,3.40
2023-05-02T03:07:26.918Z,2.30
2023-05-02T03:08:26.891Z,8.60
2023-05-02T03:09:26.894Z,9.20
2023-05-02T03:10:27.120Z,3.00
2023-05-02T03:11:27.715Z,3.00
2023-05-02T03:12:26.856Z,5.80
2023-05-02T03:13:26.862Z,3.50
2023-05-02T03:14:26.846Z,2.70
2023-05-02T03:15:26.890Z,2.90
2023-05-02T03:16:26.901Z,2.60
2023-05-02T03:17:26.825Z,2.90
2023-05-02T03:18:26.814Z,6.80
2023-05-02T03:19:26.811Z,8.60
2023-05-02T03:20:26.849Z,2.70
2023-05-02T03:21:26.797Z,2.40
2023-05-02T03:22:26.790Z,2.80
2023-05-02T03:23:26.772Z,2.80
2023-05-02T03:24:26.776Z,5.50
2023-05-02T03:25:26.782Z,1.90
2023-05-02T03:26:26.757Z,3.20
2023-05-02T03:27:26.755Z,3.60
2023-05-02T03:28:26.749Z,3.20
2023-05-02T03:29:26.805Z,3.70
2023-05-02T03:30:26.741Z,3.30
2023-05-02T03:31:27.001Z,3.90
2023-05-02T03:32:26.749Z,3.50
2023-05-02T03:33:26.725Z,4.10
2023-05-02T03:34:26.703Z,12.40
2023-05-02T03:35:26.698Z,6.10
2023-05-02T03:36:26.724Z,3.50
2023-05-02T03:37:26.674Z,13.10
2023-05-02T03:38:26.678Z,8.90
2023-05-02T03:39:26.666Z,3.60
2023-05-02T03:40:26.651Z,5.90
2023-05-02T03:41:26.678Z,8.00
2023-05-02T03:42:26.639Z,4.80
2023-05-02T03:43:26.669Z,4.40
2023-05-02T03:44:26.639Z,5.30
2023-05-02T03:45:26.636Z,7.20
2023-05-02T03:46:26.678Z,8.40
2023-05-02T03:47:26.630Z,6.70
2023-05-02T03:48:26.603Z,7.30
2023-05-02T03:49:26.640Z,8.80
2023-05-02T03:50:26.639Z,8.10
2023-05-02T03:51:26.605Z,8.80
2023-05-02T03:52:26.586Z,9.60
2023-05-02T03:53:26.576Z,7.80
2023-05-02T03:54:26.558Z,9.60
2023-05-02T03:55:26.547Z,9.50
2023-05-02T03:56:26.658Z,7.60
2023-05-02T03:57:26.540Z,14.70
2023-05-02T03:58:26.535Z,10.50
2023-05-02T03:59:26.526Z,10.30
2023-05-02T04:00:26.522Z,12.10
2023-05-02T04:01:26.533Z,13.40
2023-05-02T04:02:26.565Z,11.30
2023-05-02T04:03:28.587Z,11.60
2023-05-02T04:04:26.517Z,13.30
2023-05-02T04:05:27.416Z,11.60
2023-05-02T04:06:27.464Z,12.40
2023-05-02T04:07:26.599Z,12.80
2023-05-02T04:08:26.553Z,11.90
2023-05-02T04:09:26.499Z,12.00
2023-05-02T04:10:27.332Z,14.40
2023-05-02T04:11:26.792Z,13.70
2023-05-02T04:12:26.474Z,14.00
2023-05-02T04:13:27.284Z,14.50
2023-05-02T04:14:26.498Z,12.90
2023-05-02T04:15:27.279Z,13.50
2023-05-02T04:16:26.450Z,13.90
2023-05-02T04:17:26.454Z,14.50
2023-05-02T04:18:27.926Z,14.90
2023-05-02T04:19:26.509Z,13.30
2023-05-02T04:20:26.385Z,15.30
2023-05-02T04:21:26.417Z,14.40
2023-05-02T04:22:26.417Z,14.70
2023-05-02T04:23:26.400Z,12.90
2023-05-02T04:24:26.365Z,15.10
2023-05-02T04:25:26.372Z,15.40
2023-05-02T04:26:26.509Z,15.10
2023-05-02T04:27:26.328Z,15.40
2023-05-02T04:28:26.329Z,15.60
2023-05-02T04:29:26.313Z,17.50
2023-05-02T04:30:26.301Z,16.80
2023-05-02T04:31:26.506Z,18.30
2023-05-02T04:32:26.363Z,21.90
2023-05-02T04:33:26.279Z,17.20
2023-05-02T04:34:26.279Z,17.60
2023-05-02T04:35:26.266Z,15.60
2023-05-02T04:36:26.274Z,17.80
2023-05-02T04:37:26.287Z,15.70
2023-05-02T04:38:26.245Z,15.80
2023-05-02T04:39:26.404Z,16.00
2023-05-02T04:40:26.385Z,15.80
2023-05-02T04:41:26.322Z,18.60
2023-05-02T04:42:26.274Z,20.90
2023-05-02T04:43:27.264Z,18.40
2023-05-02T04:44:26.296Z,18.30
2023-05-02T04:45:26.777Z,15.90
2023-05-02T04:46:26.469Z,15.00
2023-05-02T04:47:27.276Z,16.20
2023-05-02T04:48:27.150Z,16.70
2023-05-02T04:49:26.300Z,18.10
2023-05-02T04:50:26.359Z,19.40
2023-05-02T04:51:26.827Z,17.60
2023-05-02T04:52:26.849Z,17.00
2023-05-02T04:53:26.244Z,19.10
2023-05-02T04:54:26.166Z,19.10
2023-05-02T04:55:26.321Z,20.00
2023-05-02T04:56:26.139Z,23.70
2023-05-02T04:57:26.105Z,21.40
2023-05-02T04:58:26.109Z,21.20
2023-05-02T04:59:26.248Z,19.80
2023-05-02T05:00:26.091Z,19.60
2023-05-02T05:01:26.109Z,19.20
2023-05-02T05:02:26.194Z,19.70
2023-05-02T05:03:26.976Z,21.20
2023-05-02T05:04:26.069Z,19.40
2023-05-02T05:05:26.061Z,20.80
2023-05-02T05:06:26.802Z,19.90
2023-05-02T05:07:26.052Z,23.60
2023-05-02T05:08:26.077Z,21.70
2023-05-02T05:09:26.016Z,20.90
2023-05-02T05:10:26.777Z,22.20
2023-05-02T05:11:26.784Z,24.60
2023-05-02T05:12:26.124Z,24.10
2023-05-02T05:13:26.078Z,21.80
2023-05-02T05:14:26.032Z,21.80
2023-05-02T05:15:26.778Z,22.60
2023-05-02T05:16:26.917Z,25.40
2023-05-02T05:17:26.058Z,23.20
2023-05-02T05:18:25.985Z,22.20
2023-05-02T05:19:26.158Z,22.40
2023-05-02T05:20:26.057Z,21.90
2023-05-02T05:21:26.018Z,22.00
2023-05-02T05:22:25.960Z,22.30
2023-05-02T05:23:26.019Z,21.40
2023-05-02T05:24:26.101Z,23.90
2023-05-02T05:25:25.991Z,21.70
2023-05-02T05:26:26.100Z,21.80
2023-05-02T05:27:26.867Z,22.10
2023-05-02T05:28:26.038Z,24.10
2023-05-02T05:29:26.035Z,29.60
2023-05-02T05:30:26.008Z,58.00
2023-05-02T05:31:26.003Z,60.00
2023-05-02T05:32:26.469Z,373.40
2023-05-02T05:33:26.027Z,189.60
2023-05-02T05:34:25.872Z,212.30
2023-05-02T05:35:26.011Z,315.10
2023-05-02T05:36:25.982Z,115.90
2023-05-02T05:37:26.046Z,23.70
2023-05-02T05:38:25.832Z,23.50
2023-05-02T05:39:25.873Z,22.60
2023-05-02T05:40:25.861Z,53.00
2023-05-02T05:41:25.872Z,31.20
2023-05-02T05:42:25.994Z,21.50
2023-05-02T05:43:25.840Z,23.30
2023-05-02T05:44:25.916Z,20.20
2023-05-02T05:45:25.967Z,21.70
2023-05-02T05:46:25.883Z,21.80
2023-05-02T05:47:25.982Z,21.60
2023-05-02T05:48:25.848Z,22.70
2023-05-02T05:49:25.840Z,21.00
2023-05-02T05:50:25.826Z,21.80
2023-05-02T05:51:25.781Z,20.90
2023-05-02T05:52:26.042Z,20.20
2023-05-02T05:53:25.833Z,21.10
2023-05-02T05:54:26.174Z,21.30
2023-05-02T05:55:25.761Z,20.30
2023-05-02T05:56:25.884Z,18.10
2023-05-02T05:57:25.727Z,19.80
2023-05-02T05:58:25.704Z,18.40
2023-05-02T05:59:25.979Z,19.90
2023-05-02T06:00:25.679Z,19.70
2023-05-02T06:01:25.662Z,22.50
2023-05-02T06:02:25.823Z,19.60
2023-05-02T06:03:25.821Z,21.10
2023-05-02T06:04:25.683Z,20.40
2023-05-02T06:05:25.646Z,21.40
2023-05-02T06:06:25.677Z,20.20
2023-05-02T06:07:25.686Z,20.20
2023-05-02T06:08:25.656Z,19.20
2023-05-02T06:09:25.628Z,20.80
2023-05-02T06:10:25.614Z,19.60
2023-05-02T06:11:25.891Z,18.70
2023-05-02T06:12:25.662Z,20.30
2023-05-02T06:13:25.590Z,20.50
2023-05-02T06:14:25.587Z,22.80
2023-05-02T06:15:25.570Z,23.40
2023-05-02T06:16:25.610Z,22.40
2023-05-02T06:17:26.403Z,21.50
2023-05-02T06:18:25.668Z,22.40
2023-05-02T06:19:25.707Z,23.60
2023-05-02T06:20:25.722Z,23.10
2023-05-02T06:21:25.589Z,38.10
2023-05-02T06:22:25.604Z,24.20
2023-05-02T06:23:25.760Z,22.80
2023-05-02T06:24:25.720Z,22.80
2023-05-02T06:25:25.564Z,26.60
2023-05-02T06:26:26.032Z,23.50
2023-05-02T06:27:25.697Z,22.50
2023-05-02T06:28:25.606Z,21.50
2023-05-02T06:29:25.770Z,21.10
2023-05-02T06:30:25.533Z,22.40
2023-05-02T06:31:25.568Z,23.10
2023-05-02T06:32:25.836Z,20.80
2023-05-02T06:33:25.574Z,22.20
2023-05-02T06:34:25.575Z,20.90
2023-05-02T06:35:26.459Z,20.00
2023-05-02T06:36:25.433Z,20.50
2023-05-02T06:37:25.868Z,21.00
2023-05-02T06:38:25.564Z,22.90
2023-05-02T06:39:25.536Z,23.30
2023-05-02T06:40:25.467Z,19.70
2023-05-02T06:41:25.431Z,19.00
2023-05-02T06:42:25.531Z,17.30
2023-05-02T06:43:25.485Z,17.30
2023-05-02T06:44:25.441Z,17.90
2023-05-02T06:45:25.387Z,19.70
2023-05-02T06:46:25.421Z,17.30
2023-05-02T06:47:25.426Z,14.70
2023-05-02T06:48:25.420Z,15.80
2023-05-02T06:49:25.363Z,16.40
2023-05-02T06:50:25.521Z,15.00
2023-05-02T06:51:25.345Z,15.10
2023-05-02T06:52:25.353Z,15.60
2023-05-02T06:53:25.508Z,14.80
2023-05-02T06:54:25.342Z,15.40
2023-05-02T06:55:25.350Z,14.40
2023-05-02T06:56:25.275Z,15.20
2023-05-02T06:57:25.272Z,15.70
2023-05-02T06:58:25.510Z,24.80
2023-05-02T06:59:25.422Z,14.50
2023-05-02T07:00:25.246Z,14.00
2023-05-02T07:01:25.252Z,12.00
2023-05-02T07:02:25.267Z,12.40
2023-05-02T07:03:25.251Z,11.60
2023-05-02T07:04:26.169Z,10.00
2023-05-02T07:05:25.233Z,11.10
2023-05-02T07:06:25.275Z,9.20
2023-05-02T07:07:25.246Z,9.70
2023-05-02T07:08:25.213Z,9.50
2023-05-02T07:09:25.208Z,8.90
2023-05-02T07:10:25.258Z,8.00
2023-05-02T07:11:25.226Z,8.90
2023-05-02T07:12:25.182Z,5.10
2023-05-02T07:13:25.160Z,5.80
2023-05-02T07:14:25.154Z,7.40
2023-05-02T07:15:25.142Z,5.40
2023-05-02T07:16:25.181Z,5.80
2023-05-02T07:17:25.196Z,5.60
2023-05-02T07:18:25.180Z,6.00
2023-05-02T07:19:25.137Z,5.80
2023-05-02T07:20:25.165Z,5.70
2023-05-02T07:21:25.116Z,5.80
2023-05-02T07:22:25.120Z,8.00
2023-05-02T07:23:25.110Z,8.80
2023-05-02T07:24:25.088Z,5.00
2023-05-02T07:25:25.082Z,5.00
2023-05-02T07:26:25.079Z,5.30
2023-05-02T07:27:25.153Z,8.10
2023-05-02T07:28:25.082Z,4.70
2023-05-02T07:29:25.096Z,4.80
2023-05-02T07:30:25.045Z,7.00
2023-05-02T07:31:25.051Z,5.10
2023-05-02T07:32:25.304Z,4.60
2023-05-02T07:33:25.065Z,3.60
2023-05-02T07:34:25.017Z,3.70
2023-05-02T07:35:25.021Z,11.90
2023-05-02T07:36:25.042Z,3.70
2023-05-02T07:37:25.018Z,8.10
2023-05-02T07:38:25.003Z,3.60
2023-05-02T07:39:24.997Z,3.20
2023-05-02T07:40:24.979Z,3.50
2023-05-02T07:41:24.986Z,3.80
2023-05-02T07:42:24.989Z,5.30
2023-05-02T07:43:24.963Z,6.90
2023-05-02T07:44:24.949Z,2.90
2023-05-02T07:45:24.953Z,3.30
2023-05-02T07:46:24.982Z,3.80
2023-05-02T07:47:25.967Z,10.50
2023-05-02T07:48:27.041Z,3.00
2023-05-02T07:49:24.931Z,2.90
2023-05-02T07:50:24.920Z,2.70
2023-05-02T07:51:24.901Z,2.50
2023-05-02T07:52:24.933Z,5.70
2023-05-02T07:53:24.886Z,2.80
2023-05-02T07:54:24.884Z,7.10
2023-05-02T07:55:24.889Z,5.50
2023-05-02T07:56:24.870Z,2.80
2023-05-02T07:57:24.891Z,3.70
2023-05-02T07:58:24.860Z,3.60
2023-05-02T07:59:24.836Z,5.50
2023-05-02T08:00:24.839Z,6.00
2023-05-02T08:01:24.855Z,6.80
2023-05-02T08:02:24.981Z,3.40
2023-05-02T08:03:24.902Z,2.00
2023-05-02T08:04:25.033Z,1.30
2023-05-02T08:05:24.807Z,2.20
2023-05-02T08:06:24.832Z,1.80
2023-05-02T08:07:24.853Z,1.90
2023-05-02T08:08:24.840Z,2.00
2023-05-02T08:09:24.785Z,6.40
2023-05-02T08:10:24.796Z,1.90
2023-05-02T08:11:24.763Z,1.90
2023-05-02T08:12:24.793Z,2.00
2023-05-02T08:13:24.783Z,2.70
2023-05-02T08:14:24.732Z,2.00
2023-05-02T08:15:24.745Z,2.50
2023-05-02T08:16:24.761Z,2.00
2023-05-02T08:17:24.746Z,3.30
2023-05-02T08:18:24.798Z,7.10
2023-05-02T08:19:24.712Z,1.70
2023-05-02T08:20:24.698Z,2.50
2023-05-02T08:21:24.714Z,8.20
2023-05-02T08:22:24.733Z,15.10
2023-05-02T08:23:24.696Z,44.20
2023-05-02T08:24:24.674Z,9.00
2023-05-02T08:25:24.674Z,9.10
2023-05-02T08:26:24.665Z,3.90
2023-05-02T08:27:24.696Z,28.80
2023-05-02T08:28:24.713Z,10.60
2023-05-02T08:29:24.644Z,19.20
2023-05-02T08:30:24.631Z,12.30
2023-05-02T08:31:24.729Z,2.90
2023-05-02T08:32:24.719Z,17.40
2023-05-02T08:33:24.664Z,5.10
2023-05-02T08:34:24.590Z,2.20
2023-05-02T08:35:24.702Z,23.40
2023-05-02T08:36:24.638Z,7.20
2023-05-02T08:37:24.599Z,5.10
2023-05-02T08:38:24.646Z,3.20
2023-05-02T08:39:24.562Z,2.10
2023-05-02T08:40:34.074Z,2.70
2023-05-02T08:41:26.559Z,3.30
2023-05-02T08:42:24.736Z,2.00
2023-05-02T08:43:24.645Z,5.30
2023-05-02T08:44:24.521Z,2.10
2023-05-02T08:45:24.548Z,2.10
2023-05-02T08:46:24.635Z,2.20
2023-05-02T08:47:24.957Z,4.20
2023-05-02T08:48:24.508Z,1.80
2023-05-02T08:49:24.509Z,1.70
2023-05-02T08:50:24.504Z,1.90
2023-05-02T08:51:24.498Z,2.30
2023-05-02T08:52:24.473Z,1.70
2023-05-02T08:53:24.475Z,1.20
2023-05-02T08:54:24.464Z,1.40
2023-05-02T08:55:24.442Z,1.30
2023-05-02T08:56:24.444Z,1.50
2023-05-02T08:57:24.455Z,1.90
2023-05-02T08:58:24.528Z,2.50
2023-05-02T08:59:24.417Z,1.50
2023-05-02T09:00:24.406Z,2.00
2023-05-02T09:01:24.436Z,1.60
2023-05-02T09:02:24.432Z,1.70
2023-05-02T09:03:24.406Z,2.00
2023-05-02T09:04:24.445Z,1.70
2023-05-02T09:05:24.382Z,1.70
2023-05-02T09:06:24.399Z,1.70
2023-05-02T09:07:24.362Z,1.80
2023-05-02T09:08:24.368Z,1.60
2023-05-02T09:09:24.346Z,1.80
2023-05-02T09:10:24.332Z,5.10
2023-05-02T09:11:24.334Z,1.40
2023-05-02T09:12:25.325Z,1.70
2023-05-02T09:13:24.343Z,1.80
2023-05-02T09:14:24.298Z,3.30
2023-05-02T09:15:24.301Z,2.20
2023-05-02T09:16:24.364Z,2.40
2023-05-02T09:17:24.279Z,2.10
2023-05-02T09:18:24.364Z,2.20
2023-05-02T09:19:24.291Z,2.30
2023-05-02T09:20:24.275Z,2.20
2023-05-02T09:21:24.253Z,1.90
2023-05-02T09:22:24.243Z,1.60
2023-05-02T09:23:24.263Z,1.80
2023-05-02T09:24:24.246Z,2.10
2023-05-02T09:25:24.212Z,2.80
2023-05-02T09:26:24.222Z,2.50
2023-05-02T09:27:24.207Z,2.10
2023-05-02T09:28:24.217Z,1.40
2023-05-02T09:29:24.204Z,1.50
2023-05-02T09:30:24.189Z,2.00
2023-05-02T09:31:43.770Z,1.40
2023-05-02T09:32:26.203Z,1.30
2023-05-02T09:33:24.183Z,1.80
2023-05-02T09:34:24.183Z,1.60
2023-05-02T09:35:24.171Z,1.30
2023-05-02T09:36:24.130Z,1.60
2023-05-02T09:37:24.132Z,2.00
2023-05-02T09:38:24.149Z,1.20
2023-05-02T09:39:25.830Z,1.50
2023-05-02T09:40:25.121Z,1.50
2023-05-02T09:41:24.128Z,1.40
2023-05-02T09:42:24.109Z,2.00
2023-05-02T09:43:24.104Z,4.40
2023-05-02T09:44:24.126Z,2.10
2023-05-02T09:45:24.133Z,1.80
2023-05-02T09:46:24.135Z,6.70
2023-05-02T09:47:24.089Z,1.70
2023-05-02T09:48:24.140Z,2.30
2023-05-02T09:49:24.044Z,1.70
2023-05-02T09:50:24.034Z,1.50
2023-05-02T09:51:24.028Z,1.80
2023-05-02T09:52:24.055Z,1.80
2023-05-02T09:53:24.036Z,5.70
2023-05-02T09:54:24.015Z,4.20
2023-05-02T09:55:24.020Z,1.60
2023-05-02T09:56:25.995Z,1.60
2023-05-02T09:57:24.987Z,2.50
2023-05-02T09:58:24.049Z,1.50
2023-05-02T09:59:24.000Z,8.10
2023-05-02T10:00:24.019Z,1.20
2023-05-02T10:01:24.030Z,4.80
2023-05-02T10:02:23.951Z,1.80
2023-05-02T10:03:23.975Z,1.90
2023-05-02T10:04:24.153Z,1.00
2023-05-02T10:05:23.927Z,2.50
2023-05-02T10:06:23.965Z,5.10
2023-05-02T10:07:23.926Z,1.50
2023-05-02T10:08:23.964Z,3.20
2023-05-02T10:09:23.900Z,0.90
2023-05-02T10:10:23.927Z,2.50
2023-05-02T10:11:23.911Z,5.20
2023-05-02T10:12:23.897Z,1.10
2023-05-02T10:13:23.921Z,1.50
2023-05-02T10:14:23.873Z,6.50
2023-05-02T10:15:23.870Z,1.10
2023-05-02T10:16:23.905Z,2.10
2023-05-02T10:17:23.841Z,0.90
2023-05-02T10:18:23.860Z,1.50
2023-05-02T10:19:23.831Z,1.60
2023-05-02T10:20:23.830Z,5.70
2023-05-02T10:21:23.821Z,4.20
2023-05-02T10:22:23.804Z,1.50
2023-05-02T10:23:23.817Z,2.30
2023-05-02T10:24:23.793Z,4.40
2023-05-02T10:25:23.795Z,2.00
2023-05-02T10:26:23.775Z,2.00
2023-05-02T10:27:23.782Z,2.00
2023-05-02T10:28:23.820Z,2.30
2023-05-02T10:29:23.761Z,1.50
2023-05-02T10:30:23.753Z,2.10
2023-05-02T10:31:23.917Z,1.60
2023-05-02T10:32:23.757Z,2.40
2023-05-02T10:33:23.763Z,1.70
2023-05-02T10:34:23.729Z,1.20
2023-05-02T10:35:23.749Z,1.10
2023-05-02T10:36:23.719Z,1.40
2023-05-02T10:37:23.716Z,2.50
2023-05-02T10:38:24.739Z,1.10
2023-05-02T10:39:24.701Z,0.80
2023-05-02T10:40:23.725Z,4.30
2023-05-02T10:41:23.674Z,0.60
2023-05-02T10:42:23.725Z,0.80
2023-05-02T10:43:23.662Z,4.10
2023-05-02T10:44:23.654Z,1.40
2023-05-02T10:45:23.679Z,0.70
2023-05-02T10:46:23.736Z,1.10
2023-05-02T10:47:23.740Z,1.50
2023-05-02T10:48:23.629Z,0.50
2023-05-02T10:49:23.621Z,0.60
2023-05-02T10:50:23.634Z,0.70
2023-05-02T10:51:23.614Z,0.40
2023-05-02T10:52:23.626Z,3.60
2023-05-02T10:53:23.598Z,1.10
2023-05-02T10:54:23.588Z,1.50
2023-05-02T10:55:23.602Z,3.40
2023-05-02T10:56:23.563Z,1.90
2023-05-02T10:57:23.567Z,1.00
2023-05-02T10:58:23.688Z,0.90
2023-05-02T10:59:23.545Z,1.20
2023-05-02T11:00:23.557Z,1.50
2023-05-02T11:01:23.688Z,1.20
2023-05-02T11:02:23.695Z,0.90
2023-05-02T11:03:23.593Z,1.30
2023-05-02T11:04:23.543Z,1.20
2023-05-02T11:05:23.508Z,1.30
2023-05-02T11:06:23.505Z,1.10
2023-05-02T11:07:23.489Z,1.00
2023-05-02T11:08:23.536Z,1.30
2023-05-02T11:09:23.489Z,0.90
2023-05-02T11:10:23.472Z,2.00
2023-05-02T11:11:23.468Z,0.90
2023-05-02T11:12:23.487Z,1.10
2023-05-02T11:13:23.456Z,1.20
2023-05-02T11:14:23.442Z,0.90
2023-05-02T11:15:23.465Z,1.20
2023-05-02T11:16:23.477Z,0.80
2023-05-02T11:17:23.601Z,4.40
2023-05-02T11:18:23.430Z,0.80
2023-05-02T11:19:23.406Z,1.10
2023-05-02T11:20:23.433Z,0.60
2023-05-02T11:21:23.401Z,3.90
2023-05-02T11:22:23.407Z,1.30
2023-05-02T11:23:23.396Z,1.30
2023-05-02T11:24:23.379Z,1.10
2023-05-02T11:25:23.376Z,1.10
2023-05-02T11:26:23.351Z,1.40
2023-05-02T11:27:23.355Z,1.60
2023-05-02T11:28:23.371Z,1.10
2023-05-02T11:29:23.348Z,3.10
2023-05-02T11:30:23.365Z,1.20
2023-05-02T11:31:23.346Z,5.10
2023-05-02T11:32:23.487Z,1.60
2023-05-02T11:33:23.442Z,1.40
2023-05-02T11:34:23.305Z,2.30
2023-05-02T11:35:23.290Z,2.50
2023-05-02T11:36:23.280Z,1.40
2023-05-02T11:37:23.293Z,5.10
2023-05-02T11:38:23.300Z,5.10
2023-05-02T11:39:23.317Z,2.00
2023-05-02T11:40:23.269Z,2.90
2023-05-02T11:41:23.278Z,2.40
2023-05-02T11:42:23.244Z,6.70
2023-05-02T11:43:23.249Z,4.90
2023-05-02T11:44:23.251Z,5.70
2023-05-02T11:45:23.233Z,6.50
2023-05-02T11:46:23.318Z,4.20
2023-05-02T11:47:23.220Z,3.40
2023-05-02T11:48:23.241Z,3.50
2023-05-02T11:49:23.214Z,7.60
2023-05-02T11:50:23.190Z,3.90
2023-05-02T11:51:23.212Z,3.10
2023-05-02T11:52:23.186Z,4.20
2023-05-02T11:53:23.215Z,4.40
2023-05-02T11:54:23.177Z,3.60
2023-05-02T11:55:23.195Z,4.90
2023-05-02T11:56:23.159Z,2.60
2023-05-02T11:57:23.155Z,3.60
2023-05-02T11:58:23.167Z,3.10
2023-05-02T11:59:23.137Z,2.50
2023-05-02T12:00:23.133Z,3.60
2023-05-02T12:01:23.134Z,3.20
2023-05-02T12:02:23.190Z,20.60
2023-05-02T12:03:23.265Z,8.30
2023-05-02T12:04:23.107Z,7.60
2023-05-02T12:05:23.139Z,4.40
2023-05-02T12:06:23.188Z,4.80
2023-05-02T12:07:23.082Z,10.20
2023-05-02T12:08:23.091Z,5.20
2023-05-02T12:09:23.060Z,10.90
2023-05-02T12:10:23.055Z,4.10
2023-05-02T12:11:23.078Z,3.60
2023-05-02T12:12:23.042Z,4.50
2023-05-02T12:13:23.053Z,4.10
2023-05-02T12:14:23.034Z,4.40
2023-05-02T12:15:23.022Z,4.70
2023-05-02T12:16:23.045Z,4.40
2023-05-02T12:17:23.061Z,5.60
2023-05-02T12:18:23.049Z,5.30
2023-05-02T12:19:23.008Z,7.50
2023-05-02T12:20:23.011Z,7.20
2023-05-02T12:21:23.000Z,8.20
2023-05-02T12:22:22.971Z,9.10
2023-05-02T12:23:22.990Z,4.60
2023-05-02T12:24:22.972Z,11.40
2023-05-02T12:25:22.952Z,3.50
2023-05-02T12:26:22.949Z,8.40
2023-05-02T12:27:22.997Z,4.40
2023-05-02T12:28:22.962Z,4.30
2023-05-02T12:29:22.940Z,8.20
2023-05-02T12:30:22.913Z,5.60
2023-05-02T12:31:23.035Z,12.40
2023-05-02T12:32:22.911Z,11.70
2023-05-02T12:33:22.919Z,6.60
2023-05-02T12:34:22.918Z,5.40
2023-05-02T12:35:22.946Z,9.90
2023-05-02T12:36:22.894Z,6.50
2023-05-02T12:37:22.881Z,6.60
2023-05-02T12:38:22.990Z,8.20
2023-05-02T12:39:22.857Z,5.60
2023-05-02T12:40:22.888Z,2.90
2023-05-02T12:41:22.832Z,3.90
2023-05-02T12:42:23.838Z,2.70
2023-05-02T12:43:22.856Z,1.90
2023-05-02T12:44:22.822Z,2.30
2023-05-02T12:45:22.824Z,5.80
2023-05-02T12:46:22.874Z,3.40
2023-05-02T12:47:22.960Z,2.40
2023-05-02T12:48:22.836Z,6.60
2023-05-02T12:49:22.795Z,1.90
2023-05-02T12:50:22.772Z,1.80
2023-05-02T12:51:22.776Z,2.00
2023-05-02T12:52:22.780Z,2.90
2023-05-02T12:53:22.776Z,5.00
2023-05-02T12:54:22.791Z,5.70
2023-05-02T12:55:22.733Z,2.00
2023-05-02T12:56:22.749Z,5.50
2023-05-02T12:57:22.814Z,2.00
2023-05-02T12:58:22.731Z,4.70
2023-05-02T12:59:22.812Z,4.40
2023-05-02T13:00:22.714Z,4.60
2023-05-02T13:01:22.776Z,1.90
2023-05-02T13:02:22.813Z,1.50
2023-05-02T13:03:22.817Z,2.30
2023-05-02T13:04:22.717Z,1.60
2023-05-02T13:05:22.684Z,1.70
2023-05-02T13:06:22.734Z,2.20
2023-05-02T13:07:22.685Z,5.30
2023-05-02T13:08:22.639Z,3.60
2023-05-02T13:09:22.644Z,2.90
2023-05-02T13:10:22.623Z,5.20
2023-05-02T13:11:22.662Z,4.60